Time;durP1;ratioP1;P1;durP2;ratioP2;P2;SDS_P1;SDS_P2;PMS_P1;PMS_P2;Temp;Humidity;BMP_temperature;BMP_pressure;BME280_temperature;BME280_humidity;BME280_pressure;Samples;Min_cycle;Max_cycle;Signal;HPM_P1;HPM_P2
2024/02/03 00:01:23;;;;;;;6.13;1.47;;;;;;;20.08;41.69;101113.72;4991879;28;20268;-32
2024/02/03 00:03:48;;;;;;;3.05;1.40;;;;;;;20.06;41.51;101113.91;4991359;28;20273;-33
2024/02/03 00:06:13;;;;;;;2.80;1.23;;;;;;;20.07;41.57;101118.31;4991233;28;20114;-32
2024/02/03 00:08:39;;;;;;;2.80;1.30;;;;;;;20.07;41.54;101112.06;4989615;28;20059;-32
2024/02/03 00:11:04;;;;;;;4.37;1.27;;;;;;;20.08;41.76;101098.28;4991202;28;20481;-32
2024/02/03 00:13:29;;;;;;;3.47;1.58;;;;;;;20.10;41.25;101104.41;4991882;28;20057;-32
2024/02/03 00:15:54;;;;;;;2.92;1.08;;;;;;;20.14;41.60;101095.88;4982468;28;20489;-32
2024/02/03 00:18:19;;;;;;;3.10;1.40;;;;;;;20.12;41.09;101106.09;4989012;28;20065;-32
2024/02/03 00:20:44;;;;;;;3.70;1.23;;;;;;;20.10;41.47;101104.41;4989158;28;20356;-33
2024/02/03 00:23:10;;;;;;;5.43;1.30;;;;;;;20.14;41.34;101104.88;4990495;28;20313;-32
2024/02/03 00:25:35;;;;;;;2.70;1.10;;;;;;;20.13;41.37;101108.59;4990286;28;20037;-33
2024/02/03 00:28:00;;;;;;;2.97;1.30;;;;;;;20.13;41.32;101102.31;4990666;28;20112;-32
2024/02/03 00:30:25;;;;;;;2.90;1.27;;;;;;;20.16;41.43;101110.09;4990361;28;20258;-32
2024/02/03 00:32:51;;;;;;;3.53;1.50;;;;;;;20.11;41.19;101102.50;4990363;28;20529;-32
2024/02/03 00:35:16;;;;;;;2.43;1.00;;;;;;;20.08;41.39;101106.44;4990422;28;20034;-32
2024/02/03 00:37:41;;;;;;;2.17;1.00;;;;;;;20.12;41.48;101100.66;4989422;28;20297;-32
2024/02/03 00:40:06;;;;;;;6.22;1.13;;;;;;;20.10;41.33;101100.81;4990303;28;20265;-32
2024/02/03 00:42:32;;;;;;;2.97;1.30;;;;;;;20.04;41.42;101105.09;4981266;28;20022;-33
2024/02/03 00:44:57;;;;;;;3.17;1.30;;;;;;;20.08;41.41;101097.44;4990373;28;20026;-32
2024/02/03 00:47:22;;;;;;;2.47;1.07;;;;;;;20.07;41.50;101098.50;4989922;28;20038;-33
2024/02/03 00:49:48;;;;;;;2.90;1.25;;;;;;;20.03;41.36;101089.84;4990210;28;20316;-32
2024/02/03 00:52:13;;;;;;;2.67;1.00;;;;;;;20.12;41.44;101097.94;4990944;28;20126;-32
2024/02/03 00:54:39;;;;;;;3.10;1.10;;;;;;;20.09;41.46;101100.00;4994151;28;20030;-32
2024/02/03 00:57:04;;;;;;;3.83;1.27;;;;;;;20.09;41.88;101088.28;4994403;28;20030;-36
2024/02/03 00:59:30;;;;;;;2.95;1.20;;;;;;;20.05;41.71;101095.94;4994458;28;20077;-33
2024/02/03 01:01:55;;;;;;;2.90;1.20;;;;;;;20.12;41.39;101092.50;4998399;28;20062;-34
2024/02/03 01:04:20;;;;;;;3.53;1.15;;;;;;;20.05;41.35;101095.94;4999651;28;20089;-32
2024/02/03 01:06:45;;;;;;;2.90;1.20;;;;;;;20.05;41.52;101093.22;5007589;28;20425;-34
2024/02/03 01:09:10;;;;;;;2.83;1.23;;;;;;;20.06;41.48;101102.22;4998001;28;20022;-32
2024/02/03 01:11:36;;;;;;;2.80;1.20;;;;;;;20.06;41.71;101099.50;4994514;28;20033;-33
2024/02/03 01:14:01;;;;;;;2.33;1.00;;;;;;;20.08;41.72;101103.72;4994256;28;20265;-32
2024/02/03 01:16:26;;;;;;;2.43;1.07;;;;;;;20.10;41.71;101106.25;4993732;28;20296;-32
2024/02/03 01:18:51;;;;;;;2.40;1.00;;;;;;;20.12;41.50;101097.94;4993742;28;20292;-32
2024/02/03 01:21:17;;;;;;;2.70;1.00;;;;;;;20.10;41.57;101095.38;4994148;28;20030;-32
2024/02/03 01:23:42;;;;;;;2.83;1.00;;;;;;;20.09;41.57;101096.41;4994010;28;20141;-32
2024/02/03 01:26:07;;;;;;;2.93;1.30;;;;;;;20.08;41.76;101103.72;4988965;28;20404;-32
2024/02/03 01:28:32;;;;;;;2.53;1.00;;;;;;;20.09;41.77;101105.41;4994050;28;20033;-32
2024/02/03 01:30:58;;;;;;;3.37;1.60;;;;;;;20.08;41.71;101098.28;4994862;28;20299;-32
2024/02/03 01:33:23;;;;;;;2.88;1.30;;;;;;;20.08;41.73;101095.59;4994475;28;20401;-32
2024/02/03 01:35:48;;;;;;;3.92;1.17;;;;;;;20.07;41.88;101098.50;4993544;28;20073;-32
2024/02/03 01:38:13;;;;;;;3.42;1.30;;;;;;;20.10;41.87;101090.81;4993262;28;20050;-32
2024/02/03 01:40:38;;;;;;;2.97;1.17;;;;;;;20.10;41.83;101100.81;4993960;28;20044;-32
2024/02/03 01:43:04;;;;;;;2.40;0.97;;;;;;;20.11;41.87;101094.38;4993971;28;20517;-32
2024/02/03 01:45:29;;;;;;;2.92;1.10;;;;;;;20.09;41.72;101086.41;4993055;28;20038;-32
2024/02/03 01:47:54;;;;;;;2.90;1.30;;;;;;;20.08;41.96;101084.72;4993480;28;20076;-33
2024/02/03 01:50:20;;;;;;;2.88;1.20;;;;;;;20.16;41.57;101086.53;4993457;28;20034;-32
2024/02/03 01:52:45;;;;;;;2.63;1.08;;;;;;;20.16;41.91;101080.25;4993524;28;20027;-30
2024/02/03 01:55:10;;;;;;;2.85;0.95;;;;;;;20.17;41.56;101074.63;4992786;28;20030;-32
2024/02/03 01:57:35;;;;;;;3.00;1.20;;;;;;;20.10;41.70;101085.41;4993262;28;20031;-33
2024/02/03 02:00:01;;;;;;;2.80;1.10;;;;;;;20.12;41.61;101087.09;4986407;28;20038;-32
2024/02/03 02:02:26;;;;;;;2.53;1.00;;;;;;;20.09;41.60;101083.72;4991523;28;20464;-33
2024/02/03 02:04:51;;;;;;;3.97;1.00;;;;;;;20.07;41.49;101091.19;4992295;28;20112;-32
2024/02/03 02:07:16;;;;;;;3.23;1.37;;;;;;;20.09;41.61;101091.84;4992583;28;20049;-32
2024/02/03 02:09:41;;;;;;;3.10;1.40;;;;;;;20.09;41.62;101091.00;4993476;28;20262;-32
2024/02/03 02:12:07;;;;;;;2.77;1.03;;;;;;;20.04;41.51;101086.09;4992707;28;20270;-32
2024/02/03 02:14:32;;;;;;;2.80;1.20;;;;;;;20.07;41.75;101090.34;4992771;28;20022;-32
2024/02/03 02:16:57;;;;;;;2.67;1.10;;;;;;;20.08;41.56;101090.16;4992556;28;20289;-32
2024/02/03 02:19:22;;;;;;;2.40;1.00;;;;;;;20.07;41.57;101093.06;4992501;28;20333;-32
2024/02/03 02:21:47;;;;;;;2.80;1.10;;;;;;;20.04;41.55;101088.81;4992663;28;20056;-32
2024/02/03 02:24:13;;;;;;;2.90;1.20;;;;;;;20.04;41.83;101088.81;4992242;28;20601;-32
2024/02/03 02:26:38;;;;;;;3.10;1.23;;;;;;;20.08;41.87;101081.16;4987699;28;20117;-32
2024/02/03 02:29:04;;;;;;;2.67;1.20;;;;;;;20.10;41.53;101096.25;4992647;28;20026;-33
2024/02/03 02:31:29;;;;;;;2.53;1.10;;;;;;;20.11;41.67;101097.09;4992455;28;20069;-32
2024/02/03 02:33:54;;;;;;;3.23;1.13;;;;;;;20.07;41.40;101085.75;4992538;28;20022;-32
2024/02/03 02:36:19;;;;;;;2.70;1.20;;;;;;;20.12;42.00;101087.91;4992180;28;20100;-32
2024/02/03 02:38:44;;;;;;;2.60;1.00;;;;;;;20.21;41.75;101077.84;4990483;28;20412;-30
2024/02/03 02:41:09;;;;;;;3.93;0.90;;;;;;;20.18;41.87;101070.88;4986053;28;20049;-32
2024/02/03 02:43:35;;;;;;;2.97;1.17;;;;;;;20.15;41.53;101076.72;4992355;28;20122;-33
2024/02/03 02:46:00;;;;;;;4.00;1.40;;;;;;;20.11;41.82;101069.94;4985864;28;20478;-33
2024/02/03 02:48:25;;;;;;;4.93;1.73;;;;;;;20.12;41.43;101071.63;4985947;28;20042;-32
2024/02/03 02:50:50;;;;;;;6.50;1.40;;;;;;;20.13;41.69;101076.03;4984602;28;20101;-32
2024/02/03 02:53:15;;;;;;;4.30;1.10;;;;;;;20.13;41.59;101072.47;4997007;28;20347;-31
2024/02/03 02:55:40;;;;;;;7.37;1.20;;;;;;;20.14;41.67;101074.16;4984453;28;20041;-32
2024/02/03 02:58:06;;;;;;;2.85;0.90;;;;;;;20.10;41.76;101069.13;4986679;28;20142;-32
2024/02/03 03:00:31;;;;;;;3.23;1.13;;;;;;;20.10;41.93;101074.53;4992079;28;20049;-33
2024/02/03 03:02:56;;;;;;;2.42;1.10;;;;;;;20.12;42.09;101071.63;4992065;28;20089;-30
2024/02/03 03:05:21;;;;;;;2.70;0.97;;;;;;;20.12;41.86;101065.38;4992092;28;20036;-32
2024/02/03 03:07:46;;;;;;;2.50;1.10;;;;;;;20.13;41.61;101067.03;4991497;28;20779;-32
2024/02/03 03:10:12;;;;;;;3.83;1.10;;;;;;;20.09;41.88;101062.00;5007189;28;53911;-33
2024/02/03 03:12:37;;;;;;;4.43;1.00;;;;;;;20.03;41.84;101057.28;4186894;27;55782;-33
2024/02/03 03:14:37;;;;;;;4.55;1.30;;;;;;;20.08;42.04;101064.88;4193563;28;20047;-33
2024/02/03 03:16:37;;;;;;;4.25;0.98;;;;;;;20.08;42.00;101060.31;4192918;28;20044;-33
2024/02/03 03:18:38;;;;;;;2.55;1.00;;;;;;;20.07;42.05;101058.63;4192820;28;20024;-33
2024/02/03 03:20:40;;;;;;;2.38;1.00;;;;;;;20.08;42.10;101060.31;4191461;28;20036;-33
2024/02/03 03:22:41;;;;;;;3.30;1.17;;;;;;;20.14;41.93;101052.44;4185306;28;20056;-32
2024/02/03 03:24:42;;;;;;;2.70;1.00;;;;;;;20.10;41.95;101060.97;4193015;28;20444;-33
2024/02/03 03:26:45;;;;;;;2.80;1.00;;;;;;;20.10;42.17;101058.25;4171242;28;20052;-33
2024/02/03 03:28:45;;;;;;;4.53;1.00;;;;;;;20.10;42.02;101063.69;4183044;28;20408;-31
2024/02/03 03:30:45;;;;;;;2.90;1.17;;;;;;;20.04;42.05;101058.13;4191032;28;20044;-32
2024/02/03 03:32:46;;;;;;;3.73;1.20;;;;;;;20.06;42.28;101061.53;4184895;28;20708;-32
2024/02/03 03:34:48;;;;;;;2.80;1.20;;;;;;;20.08;42.07;101054.88;4182878;28;20056;-33
2024/02/03 03:36:48;;;;;;;4.35;1.10;;;;;;;20.08;41.99;101054.88;4191559;28;20052;-33
2024/02/03 03:38:48;;;;;;;3.58;1.00;;;;;;;20.06;42.11;101051.50;4180978;28;20531;-33
2024/02/03 03:40:48;;;;;;;2.93;1.37;;;;;;;20.08;42.15;101063.03;4191754;28;20059;-33
2024/02/03 03:42:49;;;;;;;2.57;0.90;;;;;;;20.11;41.89;101064.50;4185146;28;21028;-32
2024/02/03 03:44:50;;;;;;;5.28;1.00;;;;;;;20.08;41.89;101060.31;4183022;28;20093;-34
2024/02/03 03:46:50;;;;;;;4.07;1.30;;;;;;;20.09;41.96;101051.13;4176700;28;20132;-34
2024/02/03 03:48:50;;;;;;;2.65;1.02;;;;;;;20.05;42.29;101052.50;4188377;28;20056;-33
2024/02/03 03:50:50;;;;;;;2.70;1.13;;;;;;;20.07;42.17;101055.91;4187777;28;20044;-33
2024/02/03 03:52:50;;;;;;;3.67;1.20;;;;;;;20.10;41.87;101062.81;4178494;28;20114;-32
2024/02/03 03:54:51;;;;;;;3.20;1.20;;;;;;;20.14;41.97;101063.28;4178764;28;20052;-33
2024/02/03 03:56:51;;;;;;;2.80;1.17;;;;;;;20.09;41.83;101067.41;4182937;28;20040;-33
2024/02/03 03:58:51;;;;;;;3.20;1.02;;;;;;;20.08;41.94;101065.72;4187876;28;20669;-32
2024/02/03 04:00:51;;;;;;;2.30;0.90;;;;;;;20.10;42.03;101077.25;4189663;28;20064;-34
2024/02/03 04:02:51;;;;;;;3.80;0.93;;;;;;;20.07;41.99;101064.03;4199134;28;20447;-34
2024/02/03 04:04:51;;;;;;;2.80;1.13;;;;;;;20.03;41.89;101068.13;4184014;28;20145;-33
2024/02/03 04:06:52;;;;;;;3.00;1.30;;;;;;;20.05;41.52;101060.66;4178110;28;20048;-34
2024/02/03 04:08:52;;;;;;;7.10;1.25;;;;;;;20.06;42.08;101067.78;4178591;28;20260;-33
2024/02/03 04:10:52;;;;;;;2.60;1.10;;;;;;;20.02;41.89;101069.19;4177303;28;20029;-33
2024/02/03 04:12:52;;;;;;;2.57;0.97;;;;;;;20.04;41.96;101075.25;4173819;28;20053;-33
2024/02/03 04:14:53;;;;;;;2.43;1.00;;;;;;;20.04;41.95;101080.69;4172221;28;20045;-34
2024/02/03 04:16:53;;;;;;;2.63;1.05;;;;;;;20.11;41.78;101064.50;4177915;28;20566;-33
2024/02/03 04:18:53;;;;;;;3.90;1.00;;;;;;;20.08;41.58;101070.31;4177982;28;20031;-34
2024/02/03 04:20:53;;;;;;;3.10;1.10;;;;;;;20.04;42.02;101075.25;4177709;28;20488;-33
2024/02/03 04:22:53;;;;;;;5.00;1.00;;;;;;;20.02;41.90;101071.91;4172189;28;20025;-34
2024/02/03 04:24:53;;;;;;;2.67;1.13;;;;;;;20.01;41.98;101075.63;4177645;28;20051;-33
2024/02/03 04:26:54;;;;;;;3.70;1.30;;;;;;;20.08;42.28;101082.00;4177018;28;20294;-33
2024/02/03 04:28:54;;;;;;;7.07;1.10;;;;;;;20.08;41.97;101081.16;4180831;28;20033;-32
2024/02/03 04:30:58;;;;;;;2.63;1.07;;;;;;;20.14;41.96;101079.59;4180828;28;20037;-33
2024/02/03 04:32:58;;;;;;;4.85;1.05;;;;;;;20.13;41.94;101080.59;4172307;28;20031;-34
2024/02/03 04:34:58;;;;;;;2.73;1.00;;;;;;;20.14;41.85;101072.31;4170684;28;20049;-34
2024/02/03 04:36:58;;;;;;;2.70;0.90;;;;;;;20.09;41.79;101072.84;4171534;28;20476;-32
2024/02/03 04:38:58;;;;;;;3.10;1.10;;;;;;;20.09;42.11;101078.28;4178797;28;20508;-33
2024/02/03 04:40:59;;;;;;;2.37;1.00;;;;;;;20.10;42.02;101079.97;4180422;28;20127;-33
2024/02/03 04:42:59;;;;;;;2.53;1.00;;;;;;;20.13;42.23;101070.59;4175245;28;20060;-34
2024/02/03 04:44:59;;;;;;;2.55;1.00;;;;;;;20.09;42.08;101067.41;4176984;28;20524;-34
2024/02/03 04:46:59;;;;;;;2.47;0.90;;;;;;;20.08;42.09;101071.16;4175241;28;20392;-34
2024/02/03 04:49:00;;;;;;;3.60;1.10;;;;;;;20.12;42.00;101070.81;4177121;28;20260;-33
2024/02/03 04:51:00;;;;;;;3.43;1.10;;;;;;;20.11;42.14;101072.66;4180690;28;20040;-33
2024/02/03 04:53:00;;;;;;;3.00;1.23;;;;;;;20.10;42.11;101079.97;4172394;28;20334;-33
2024/02/03 04:55:00;;;;;;;2.40;1.00;;;;;;;20.13;42.13;101073.31;4168608;28;20052;-34
2024/02/03 04:57:00;;;;;;;5.47;1.73;;;;;;;20.12;41.98;101081.66;4177195;28;20773;-33
2024/02/03 04:59:01;;;;;;;2.42;1.08;;;;;;;20.05;42.02;101071.50;4180356;28;20107;-33
2024/02/03 05:01:01;;;;;;;2.83;1.00;;;;;;;20.10;42.29;101077.25;4178679;28;20029;-33
2024/02/03 05:03:01;;;;;;;2.30;1.10;;;;;;;20.08;42.05;101073.88;4180082;28;20375;-33
2024/02/03 05:05:01;;;;;;;2.53;1.33;;;;;;;20.10;42.13;101077.25;4171629;28;20267;-34
2024/02/03 05:07:01;;;;;;;2.50;1.00;;;;;;;20.10;42.24;101071.81;4179176;28;20044;-33
2024/02/03 05:09:02;;;;;;;2.58;1.05;;;;;;;20.10;41.91;101073.69;4179923;28;20033;-34
2024/02/03 05:11:02;;;;;;;2.55;1.10;;;;;;;20.07;42.04;101074.91;4178778;28;20037;-34
2024/02/03 05:13:03;;;;;;;3.40;1.23;;;;;;;20.08;41.97;101068.44;4176727;28;20079;-34
2024/02/03 05:15:03;;;;;;;3.22;1.00;;;;;;;20.09;42.22;101067.41;4174747;28;20083;-34
2024/02/03 05:17:04;;;;;;;2.60;0.98;;;;;;;20.09;42.17;101075.56;4168715;28;20051;-33
2024/02/03 05:19:09;;;;;;;2.83;1.00;;;;;;;20.09;42.01;101086.41;4179879;28;20032;-33
2024/02/03 05:21:09;;;;;;;2.25;0.90;;;;;;;20.08;42.14;101079.31;4179982;28;20104;-33
2024/02/03 05:23:09;;;;;;;3.17;1.10;;;;;;;20.13;42.29;101069.75;4179781;28;20407;-33
2024/02/03 05:25:11;;;;;;;6.00;1.17;;;;;;;20.09;42.19;101083.72;4175086;28;20292;-34
2024/02/03 05:27:11;;;;;;;4.13;1.00;;;;;;;20.08;42.18;101075.72;4177923;28;20032;-33
2024/02/03 05:29:11;;;;;;;3.25;0.90;;;;;;;20.03;42.28;101073.56;4179840;28;20431;-34
2024/02/03 05:31:11;;;;;;;3.08;1.00;;;;;;;20.07;42.25;101074.91;4171660;28;20025;-34
2024/02/03 05:33:12;;;;;;;2.88;1.15;;;;;;;20.08;42.02;101075.72;4180306;28;20099;-33
2024/02/03 05:35:12;;;;;;;2.07;0.90;;;;;;;20.08;42.07;101078.44;4179077;28;20108;-34
2024/02/03 05:37:12;;;;;;;3.97;1.00;;;;;;;20.09;42.24;101078.28;4173380;28;20356;-33
2024/02/03 05:39:12;;;;;;;3.42;1.33;;;;;;;20.10;42.02;101074.53;4176195;28;20056;-34
2024/02/03 05:41:12;;;;;;;2.35;1.02;;;;;;;20.05;42.02;101076.94;4178471;28;20485;-34
2024/02/03 05:43:13;;;;;;;7.37;1.30;;;;;;;20.09;42.24;101072.84;4171509;28;20127;-33
2024/02/03 05:45:13;;;;;;;2.40;0.90;;;;;;;20.12;41.90;101081.66;4179472;28;20064;-32
2024/02/03 05:47:13;;;;;;;3.77;1.10;;;;;;;20.10;42.13;101074.53;4179303;28;20325;-33
2024/02/03 05:49:13;;;;;;;3.17;0.80;;;;;;;20.10;41.93;101073.69;4179679;28;20267;-34
2024/02/03 05:51:14;;;;;;;2.40;0.90;;;;;;;20.08;42.32;101084.72;4178297;28;20039;-33
2024/02/03 05:53:14;;;;;;;2.40;0.90;;;;;;;20.11;42.14;101080.81;4178276;28;20543;-33
2024/02/03 05:55:14;;;;;;;2.57;1.07;;;;;;;20.09;41.85;101083.72;4175761;28;20028;-33
2024/02/03 05:57:14;;;;;;;6.17;1.33;;;;;;;20.09;42.10;101086.41;4178041;28;20263;-33
2024/02/03 05:59:15;;;;;;;2.50;1.08;;;;;;;20.08;41.99;101092.00;4173068;28;20299;-33
2024/02/03 06:01:15;;;;;;;2.80;0.97;;;;;;;20.04;41.78;101086.09;4179395;28;20108;-34
2024/02/03 06:03:15;;;;;;;2.53;1.00;;;;;;;20.04;42.11;101090.69;4179405;28;20033;-34
2024/02/03 06:05:15;;;;;;;5.27;1.00;;;;;;;20.04;42.04;101086.09;4172763;28;20029;-34
2024/02/03 06:07:16;;;;;;;2.92;1.00;;;;;;;20.02;41.91;101074.63;4168047;28;20263;-34
2024/02/03 06:09:16;;;;;;;5.22;1.02;;;;;;;20.03;42.05;101076.28;4177475;28;20025;-33
2024/02/03 06:11:16;;;;;;;4.63;1.13;;;;;;;20.05;42.04;101076.94;4164224;28;20044;-34
2024/02/03 06:13:20;;;;;;;4.40;1.07;;;;;;;20.03;42.02;101076.28;4162708;28;20041;-33
2024/02/03 06:15:21;;;;;;;2.95;1.10;;;;;;;20.01;42.43;101072.94;4177988;28;20048;-32
2024/02/03 06:17:21;;;;;;;2.03;0.80;;;;;;;19.98;42.18;101078.72;4179094;28;20496;-33
2024/02/03 06:19:21;;;;;;;2.75;1.20;;;;;;;20.12;42.06;101078.94;4179175;28;20025;-33
2024/02/03 06:21:21;;;;;;;3.43;1.00;;;;;;;20.07;42.19;101080.31;4179008;28;20484;-33
2024/02/03 06:23:21;;;;;;;6.10;1.10;;;;;;;20.07;42.34;101074.91;4179115;28;20264;-34
2024/02/03 06:25:22;;;;;;;4.33;0.87;;;;;;;20.09;42.25;101081.00;4171263;28;20272;-33
2024/02/03 06:27:22;;;;;;;3.10;0.77;;;;;;;20.07;41.88;101082.22;4171102;28;20267;-34
2024/02/03 06:29:22;;;;;;;4.85;1.20;;;;;;;20.10;42.22;101081.81;4178927;28;20272;-32
2024/02/03 06:31:22;;;;;;;3.40;1.10;;;;;;;20.14;42.24;101091.31;4178990;28;20036;-33
2024/02/03 06:33:23;;;;;;;8.02;1.00;;;;;;;20.05;42.24;101095.09;4179039;28;20042;-34
2024/02/03 06:35:23;;;;;;;4.32;1.23;;;;;;;20.10;41.96;101088.09;4171897;28;20100;-33
2024/02/03 06:37:23;;;;;;;2.77;1.20;;;;;;;20.17;41.87;101095.50;4169357;28;20264;-33
2024/02/03 06:39:23;;;;;;;2.65;0.82;;;;;;;20.14;41.91;101093.16;4176489;28;20524;-33
2024/02/03 06:41:24;;;;;;;3.80;1.03;;;;;;;20.13;41.84;101102.31;4178981;28;20108;-33
2024/02/03 06:43:24;;;;;;;2.35;1.00;;;;;;;20.09;41.95;101102.69;4163568;28;20392;-33
2024/02/03 06:45:24;;;;;;;3.10;1.05;;;;;;;20.05;42.24;101098.66;4170666;28;20032;-33
2024/02/03 06:47:24;;;;;;;2.97;0.90;;;;;;;20.10;42.15;101090.81;4171455;28;20472;-33
2024/02/03 06:49:25;;;;;;;2.25;0.98;;;;;;;20.17;42.04;101082.78;4170547;28;20022;-33
2024/02/03 06:51:25;;;;;;;2.60;1.00;;;;;;;20.16;41.90;101088.41;4169668;28;20029;-33
2024/02/03 06:53:25;;;;;;;6.27;1.07;;;;;;;20.16;42.07;101086.53;4174441;28;20033;-32
2024/02/03 06:55:25;;;;;;;2.70;1.07;;;;;;;20.14;41.96;101080.44;4171465;28;20025;-34
2024/02/03 06:57:25;;;;;;;2.53;1.10;;;;;;;20.14;41.93;101079.59;4169485;28;20550;-33
2024/02/03 06:59:26;;;;;;;2.60;0.93;;;;;;;20.16;41.84;101075.69;4178639;28;20275;-32
2024/02/03 07:01:26;;;;;;;6.47;1.23;;;;;;;20.15;41.97;101078.56;4178773;28;20029;-33
2024/02/03 07:03:26;;;;;;;3.40;0.93;;;;;;;20.21;42.02;101078.69;4162453;28;20282;-32
2024/02/03 07:05:26;;;;;;;2.97;1.10;;;;;;;20.19;42.06;101077.19;4163601;28;20074;-33
2024/02/03 07:07:26;;;;;;;2.43;0.87;;;;;;;20.18;42.00;101086.34;4177775;28;20627;-32
2024/02/03 07:09:27;;;;;;;2.42;0.93;;;;;;;20.18;41.98;101092.59;4164242;28;20260;-33
2024/02/03 07:11:27;;;;;;;2.97;0.93;;;;;;;20.19;41.78;101090.75;4170280;28;20532;-33
2024/02/03 07:13:27;;;;;;;4.13;1.10;;;;;;;20.16;41.97;101081.13;4178878;28;20380;-34
2024/02/03 07:15:27;;;;;;;2.33;1.00;;;;;;;20.16;42.14;101096.53;4178832;28;20025;-33
2024/02/03 07:17:28;;;;;;;2.13;0.90;;;;;;;20.16;42.14;101104.69;4170550;28;20396;-32
2024/02/03 07:19:28;;;;;;;4.55;0.85;;;;;;;20.19;42.04;101096.19;4178681;28;20021;-34
2024/02/03 07:21:28;;;;;;;3.43;0.83;;;;;;;20.28;42.11;101105.94;4178475;28;20579;-34
2024/02/03 07:23:28;;;;;;;3.30;0.90;;;;;;;20.35;41.94;101111.50;4178449;28;20263;-34
2024/02/03 07:25:28;;;;;;;5.70;1.20;;;;;;;20.37;41.82;101107.56;4173457;28;20613;-35
2024/02/03 07:27:28;;;;;;;4.30;0.90;;;;;;;20.41;41.88;101106.16;4175755;28;20380;-34
2024/02/03 07:29:29;;;;;;;6.88;1.20;;;;;;;20.42;42.08;101110.56;4177125;28;20021;-33
2024/02/03 07:31:29;;;;;;;10.13;1.10;;;;;;;20.40;41.97;101111.78;4177210;28;20061;-33
2024/02/03 07:33:29;;;;;;;6.72;1.20;;;;;;;20.34;41.78;101120.66;4178487;28;20263;-32
2024/02/03 07:35:30;;;;;;;2.85;0.90;;;;;;;20.27;42.00;101123.25;4178187;28;20021;-33
2024/02/03 07:37:30;;;;;;;4.45;1.00;;;;;;;20.33;41.72;101116.25;4178054;28;20041;-34
2024/02/03 07:39:31;;;;;;;3.83;0.85;;;;;;;20.31;42.04;101113.69;4175312;28;20100;-33
2024/02/03 07:41:31;;;;;;;4.70;1.00;;;;;;;20.47;41.86;101117.31;4170239;28;20026;-33
2024/02/03 07:43:31;;;;;;;2.55;1.00;;;;;;;20.51;41.61;101115.91;4177975;28;20039;-32
2024/02/03 07:45:33;;;;;;;2.38;0.93;;;;;;;20.48;41.45;101119.00;4178168;28;20021;-34
2024/02/03 07:47:33;;;;;;;3.00;1.00;;;;;;;20.50;41.75;101119.66;4178297;28;20021;-33
2024/02/03 07:49:33;;;;;;;3.80;1.00;;;;;;;20.52;41.66;101117.59;4162402;28;20100;-34
2024/02/03 07:51:33;;;;;;;16.93;2.07;;;;;;;20.55;43.47;101126.22;4177843;28;20033;-32
2024/02/03 07:53:33;;;;;;;3.80;1.00;;;;;;;20.60;41.84;101122.09;4178097;28;20032;-33
2024/02/03 07:55:33;;;;;;;4.57;1.17;;;;;;;20.53;42.07;101127.44;4170214;28;20029;-34
2024/02/03 07:57:34;;;;;;;3.80;0.73;;;;;;;20.49;42.26;101128.84;4177641;28;20518;-34
2024/02/03 07:59:34;;;;;;;3.95;0.85;;;;;;;20.53;43.11;101132.84;4181338;28;20260;-33
2024/02/03 08:01:34;;;;;;;4.00;1.10;;;;;;;20.42;42.24;101134.16;4181243;28;20025;-34
2024/02/03 08:03:34;;;;;;;4.30;1.02;;;;;;;20.40;42.00;101130.78;4181412;28;20056;-33
2024/02/03 08:05:35;;;;;;;2.70;1.10;;;;;;;20.42;42.01;101132.28;4173147;28;20021;-33
2024/02/03 08:07:36;;;;;;;4.65;1.23;;;;;;;20.45;41.63;101127.50;4175927;28;20025;-33
2024/02/03 08:09:36;;;;;;;2.22;0.90;;;;;;;20.49;42.05;101134.28;4180949;28;20013;-33
2024/02/03 08:11:36;;;;;;;6.45;0.98;;;;;;;20.54;43.48;101135.41;4174316;28;20631;-34
2024/02/03 08:13:36;;;;;;;4.40;1.00;;;;;;;20.52;41.86;101126.59;4180860;28;20028;-33
2024/02/03 08:15:37;;;;;;;2.53;1.00;;;;;;;20.66;41.39;101130.38;4177622;28;20078;-33
2024/02/03 08:17:37;;;;;;;6.53;1.25;;;;;;;20.70;41.60;101128.94;4180926;28;20060;-33
2024/02/03 08:19:37;;;;;;;9.07;1.17;;;;;;;20.65;41.59;101131.41;4177482;28;20090;-33
2024/02/03 08:21:38;;;;;;;3.07;0.80;;;;;;;20.66;41.22;101127.66;4181145;28;20029;-32
2024/02/03 08:23:38;;;;;;;2.92;0.90;;;;;;;20.62;41.59;101128.22;4180801;28;20021;-32
2024/02/03 08:25:38;;;;;;;5.77;0.90;;;;;;;20.56;41.53;101130.63;4180375;28;20047;-32
2024/02/03 08:27:38;;;;;;;4.97;1.00;;;;;;;20.65;41.51;101134.09;4174011;28;20112;-32
2024/02/03 08:29:38;;;;;;;2.50;1.00;;;;;;;20.67;41.19;101134.78;4180707;28;20025;-34
2024/02/03 08:31:38;;;;;;;2.13;0.90;;;;;;;20.60;41.58;101133.81;4180887;28;20044;-33
2024/02/03 08:33:39;;;;;;;1.77;0.75;;;;;;;20.63;41.43;101143.47;4181166;28;20052;-34
2024/02/03 08:35:39;;;;;;;2.50;1.00;;;;;;;20.66;41.05;101138.50;4179511;28;20021;-34
2024/02/03 08:37:39;;;;;;;2.67;0.93;;;;;;;20.63;41.24;101129.91;4180585;28;20029;-32
2024/02/03 08:39:39;;;;;;;2.17;0.80;;;;;;;20.64;40.91;101139.75;4164406;28;20032;-34
2024/02/03 08:41:39;;;;;;;2.53;0.90;;;;;;;20.72;41.14;101147.81;4180746;28;20163;-34
2024/02/03 08:43:39;;;;;;;3.83;0.93;;;;;;;20.75;40.99;101142.00;4172400;28;20818;-34
2024/02/03 08:45:40;;;;;;;2.73;0.90;;;;;;;20.72;40.94;101129.63;4176489;28;20029;-35
2024/02/03 08:47:40;;;;;;;3.37;0.80;;;;;;;20.69;41.14;101138.13;4180975;28;20526;-35
2024/02/03 08:49:40;;;;;;;2.60;0.80;;;;;;;20.69;41.30;101132.69;4180941;28;20400;-34
2024/02/03 08:51:40;;;;;;;2.30;0.83;;;;;;;20.67;41.03;101129.34;4172488;28;20480;-34
2024/02/03 08:53:40;;;;;;;2.20;0.87;;;;;;;20.70;40.88;101131.66;4172568;28;20432;-34
2024/02/03 08:55:40;;;;;;;2.80;0.90;;;;;;;20.73;41.06;101127.75;4171069;28;20025;-34
2024/02/03 08:57:41;;;;;;;3.60;0.87;;;;;;;20.66;40.93;101122.22;4172259;28;20610;-33
2024/02/03 08:59:41;;;;;;;1.92;0.77;;;;;;;20.70;41.01;101123.50;4172514;28;20526;-34
2024/02/03 09:01:41;;;;;;;2.42;0.90;;;;;;;20.79;41.18;101127.03;4164200;28;20060;-34
2024/02/03 09:03:41;;;;;;;2.30;0.80;;;;;;;20.75;40.92;101119.44;4180918;28;20492;-32
2024/02/03 09:05:42;;;;;;;4.63;1.10;;;;;;;20.68;41.29;101131.03;4180281;28;20021;-33
2024/02/03 09:07:42;;;;;;;3.53;1.00;;;;;;;20.77;41.18;101122.81;4180224;28;20052;-34
2024/02/03 09:09:42;;;;;;;1.83;0.88;;;;;;;20.77;40.94;101122.81;4172045;28;20013;-32
2024/02/03 09:11:43;;;;;;;4.03;1.05;;;;;;;20.69;40.73;101132.69;4171939;28;20173;-34
2024/02/03 09:13:43;;;;;;;3.13;0.93;;;;;;;20.80;40.58;101119.72;4179897;28;20132;-33
2024/02/03 09:15:43;;;;;;;2.45;1.00;;;;;;;20.76;40.81;101121.97;4178457;28;20032;-34
2024/02/03 09:17:44;;;;;;;4.17;0.90;;;;;;;20.84;40.95;101118.31;4180091;28;20037;-32
2024/02/03 09:19:44;;;;;;;2.43;0.70;;;;;;;20.81;40.94;101119.53;4174393;28;20075;-32
2024/02/03 09:21:44;;;;;;;2.23;0.90;;;;;;;20.78;40.99;101105.50;4179940;28;20263;-35
2024/02/03 09:23:44;;;;;;;2.73;0.90;;;;;;;20.76;40.56;101111.09;4183159;28;20044;-34
2024/02/03 09:25:44;;;;;;;2.23;0.93;;;;;;;20.76;41.02;101100.22;4179681;28;20496;-34
2024/02/03 09:27:45;;;;;;;2.60;0.90;;;;;;;20.81;40.73;101108.69;4178899;28;20267;-34
2024/02/03 09:29:45;;;;;;;5.70;0.90;;;;;;;20.85;40.35;101103.72;4183734;28;20468;-34
2024/02/03 09:31:45;;;;;;;2.95;0.90;;;;;;;20.99;40.54;101107.47;4179912;28;20037;-31
2024/02/03 09:33:45;;;;;;;10.13;1.05;;;;;;;21.01;40.21;101098.09;4179627;28;20029;-33
2024/02/03 09:35:46;;;;;;;5.17;0.77;;;;;;;21.02;40.54;101098.91;4179726;28;20036;-33
2024/02/03 09:37:46;;;;;;;2.00;0.77;;;;;;;21.07;40.76;101106.50;4179504;28;20042;-31
2024/02/03 09:39:47;;;;;;;4.72;1.05;;;;;;;21.01;40.98;101098.09;4175466;28;20430;-35
2024/02/03 09:41:47;;;;;;;3.58;0.80;;;;;;;21.13;40.53;101094.88;4179062;28;20040;-35
2024/02/03 09:43:47;;;;;;;6.30;1.00;;;;;;;21.21;40.44;101096.66;4177442;28;20020;-28
2024/02/03 09:45:47;;;;;;;2.83;0.90;;;;;;;21.26;40.72;101099.66;4178013;28;20033;-43
2024/02/03 09:47:48;;;;;;;4.95;0.80;;;;;;;21.28;41.26;101094.88;4172835;28;20036;-43
2024/02/03 09:49:49;;;;;;;1.98;0.57;;;;;;;21.13;43.00;101095.72;4174464;28;20018;-42
2024/02/03 09:51:49;;;;;;;5.73;1.43;;;;;;;21.14;40.52;101089.25;4179555;28;20389;-43